Time;durP1;ratioP1;P1;durP2;ratioP2;P2;SDS_P1;SDS_P2;PMS_P1;PMS_P2;Temp;Humidity;BMP_temperature;BMP_pressure;BME280_temperature;BME280_humidity;BME280_pressure;Samples;Min_cycle;Max_cycle;Signal;HPM_P1;HPM_P2
2022/12/07 05:06:40;;;;;;;;;28.50;25.25;;;;;;;;6468800;46;8966;-60
2022/12/07 05:12:45;;;;;;;;;39.25;30.25;;;;;;;;6490240;39;8928;-58
2022/12/07 05:18:47;;;;;;;;;30.75;26.00;;;;;;;;6490110;39;9575;-60
2022/12/07 05:24:49;;;;;;;;;28.75;26.50;;;;;;;;6489782;39;8887;-60
2022/12/07 05:30:52;;;;;;;;;31.50;27.75;;;;;;;;6489600;46;8988;-60
2022/12/07 05:37:00;;;;;;;;;30.00;19.75;;;;;;;;6486936;31;8880;-60
2022/12/07 05:43:03;;;;;;;;;34.25;30.25;;;;;;;;6490094;39;8920;-61
2022/12/07 05:49:06;;;;;;;;;32.75;29.50;;;;;;;;6490185;31;8960;-59
2022/12/07 05:55:09;;;;;;;;;31.50;28.75;;;;;;;;6490294;39;8865;-60
2022/12/07 06:01:13;;;;;;;;;41.50;33.75;;;;;;;;6489275;31;8932;-60
2022/12/07 06:07:16;;;;;;;;;35.75;31.50;;;;;;;;6490557;39;9128;-61
2022/12/07 06:13:19;;;;;;;;;31.25;31.25;;;;;;;;6491492;46;8919;-60
2022/12/07 06:19:21;;;;;;;;;38.25;33.75;;;;;;;;6491107;39;8908;-60
2022/12/07 06:25:24;;;;;;;;;30.25;26.75;;;;;;;;6492270;31;8849;-59
2022/12/07 06:31:27;;;;;;;;;44.00;36.00;;;;;;;;6491080;39;8876;-63
2022/12/07 06:37:30;;;;;;;;;35.75;34.25;;;;;;;;6491172;46;8869;-61
2022/12/07 06:43:33;;;;;;;;;43.75;34.25;;;;;;;;6491086;46;8909;-63
2022/12/07 06:49:35;;;;;;;;;32.25;28.50;;;;;;;;6490582;31;8874;-60
2022/12/07 06:55:39;;;;;;;;;41.75;31.50;;;;;;;;6491808;39;8904;-60
2022/12/07 07:01:41;;;;;;;;;34.50;32.75;;;;;;;;6490626;31;9041;-60
2022/12/07 07:07:46;;;;;;;;;34.75;29.25;;;;;;;;6491474;39;9579;-58
2022/12/07 07:14:08;;;;;;;;;40.25;29.75;;;;;;;;6490511;46;8884;-59
2022/12/07 07:20:12;;;;;;;;;26.75;24.00;;;;;;;;6490433;31;8872;-63
2022/12/07 07:26:15;;;;;;;;;39.25;34.00;;;;;;;;6490698;46;8976;-60
2022/12/07 07:32:25;;;;;;;;;35.00;30.00;;;;;;;;6490794;31;9524;-60
2022/12/07 07:38:27;;;;;;;;;30.75;30.50;;;;;;;;6490107;46;8901;-59
2022/12/07 07:44:30;;;;;;;;;35.75;30.75;;;;;;;;6490317;39;8955;-60
2022/12/07 07:50:36;;;;;;;;;43.25;38.75;;;;;;;;6489319;46;8918;-60
2022/12/07 07:56:38;;;;;;;;;41.75;35.00;;;;;;;;6488667;46;8928;-60
2022/12/07 08:02:41;;;;;;;;;43.25;41.75;;;;;;;;6487334;39;9006;-61
2022/12/07 08:08:44;;;;;;;;;50.25;42.00;;;;;;;;6488508;36;8803;-59
2022/12/07 08:14:47;;;;;;;;;51.75;41.50;;;;;;;;6487753;31;8899;-60
2022/12/07 08:20:51;;;;;;;;;33.25;31.25;;;;;;;;6487490;46;8935;-60
2022/12/07 08:26:54;;;;;;;;;44.25;36.50;;;;;;;;6489249;39;8919;-60
2022/12/07 08:32:56;;;;;;;;;45.50;36.50;;;;;;;;6487853;46;8935;-60
2022/12/07 08:38:58;;;;;;;;;43.75;37.25;;;;;;;;6485460;31;8907;-61
2022/12/07 08:45:22;;;;;;;;;56.00;42.75;;;;;;;;6484588;31;8955;-59
2022/12/07 08:51:28;;;;;;;;;48.00;42.25;;;;;;;;6487959;46;9018;-60
2022/12/07 08:57:33;;;;;;;;;50.75;45.75;;;;;;;;6489670;39;8921;-59
2022/12/07 09:03:35;;;;;;;;;50.25;40.75;;;;;;;;6486554;39;8959;-60
2022/12/07 09:09:38;;;;;;;;;45.25;37.75;;;;;;;;6489495;36;8911;-60
2022/12/07 09:15:42;;;;;;;;;46.50;41.00;;;;;;;;6486946;39;8920;-60
2022/12/07 09:21:46;;;;;;;;;50.75;43.00;;;;;;;;6488160;31;8916;-59
